createdAt,value
2023-04-25T00:01:39.069Z,13.60
2023-04-25T00:03:42.278Z,18.43
2023-04-25T00:05:46.174Z,13.80
2023-04-25T00:07:49.316Z,25.93
2023-04-25T00:09:52.234Z,17.57
2023-04-25T00:11:56.828Z,9.47
2023-04-25T00:14:00.849Z,21.47
2023-04-25T00:16:04.194Z,18.50
2023-04-25T00:18:07.889Z,14.57
2023-04-25T00:20:12.119Z,17.20
2023-04-25T00:22:15.335Z,15.77
2023-04-25T00:24:18.310Z,15.60
2023-04-25T00:26:21.912Z,14.10
2023-04-25T00:28:26.197Z,22.63
2023-04-25T00:30:29.466Z,11.70
2023-04-25T00:32:32.500Z,12.63
2023-04-25T00:34:35.979Z,21.23
2023-04-25T00:36:39.282Z,15.67
2023-04-25T00:38:42.553Z,19.70
2023-04-25T00:40:45.664Z,14.10
2023-04-25T00:42:48.973Z,13.37
2023-04-25T00:44:53.948Z,14.70
2023-04-25T00:46:56.921Z,23.20
2023-04-25T00:49:00.204Z,14.73
2023-04-25T00:51:03.405Z,14.70
2023-04-25T00:53:06.529Z,19.00
2023-04-25T00:55:10.220Z,25.40
2023-04-25T00:57:13.121Z,14.27
2023-04-25T00:59:16.616Z,17.13
2023-04-25T01:01:21.031Z,16.30
2023-04-25T01:03:24.181Z,23.17
2023-04-25T01:05:27.196Z,14.37
2023-04-25T01:07:30.169Z,17.00
2023-04-25T01:09:33.863Z,18.47
2023-04-25T01:11:37.545Z,16.90
2023-04-25T01:13:40.526Z,15.00
2023-04-25T01:15:43.430Z,11.63
2023-04-25T01:17:48.145Z,12.83
2023-04-25T01:19:51.640Z,10.33
2023-04-25T01:21:56.000Z,8.37
2023-04-25T01:23:59.273Z,12.73
2023-04-25T01:26:02.963Z,12.40
2023-04-25T01:28:06.232Z,11.03
2023-04-25T01:30:10.466Z,16.27
2023-04-25T01:32:15.085Z,13.80
2023-04-25T01:34:18.037Z,17.13
2023-04-25T01:36:21.228Z,12.80
2023-04-25T01:38:25.687Z,8.83
2023-04-25T01:40:29.711Z,11.33
2023-04-25T01:42:33.935Z,14.13
2023-04-25T01:44:36.972Z,10.77
2023-04-25T01:46:39.948Z,12.03
2023-04-25T01:48:42.937Z,16.77
2023-04-25T01:50:46.225Z,13.87
2023-04-25T01:52:49.105Z,9.50
2023-04-25T01:54:54.062Z,15.57
2023-04-25T01:56:59.649Z,16.10
2023-04-25T01:59:02.722Z,12.70
2023-04-25T02:01:37.799Z,14.03
2023-04-25T02:03:53.160Z,16.70
2023-04-25T02:06:02.549Z,19.63
2023-04-25T02:08:08.002Z,14.17
2023-04-25T02:10:12.743Z,12.80
2023-04-25T02:12:31.935Z,11.37
2023-04-25T02:14:37.821Z,14.57
2023-04-25T02:17:01.703Z,16.63
2023-04-25T02:19:07.063Z,10.80
2023-04-25T02:21:11.128Z,13.50
2023-04-25T02:23:14.338Z,13.30
2023-04-25T02:25:19.008Z,18.83
2023-04-25T02:27:22.999Z,14.83
2023-04-25T02:29:26.078Z,17.83
2023-04-25T02:31:29.202Z,22.20
2023-04-25T02:33:34.612Z,14.10
2023-04-25T02:35:37.970Z,17.43
2023-04-25T02:37:42.106Z,19.57
2023-04-25T02:39:47.835Z,14.63
2023-04-25T02:41:52.402Z,17.17
2023-04-25T02:43:55.289Z,14.90
2023-04-25T02:45:58.236Z,18.07
2023-04-25T02:48:01.844Z,18.20
2023-04-25T02:50:09.100Z,18.57
2023-04-25T02:52:12.364Z,16.37
2023-04-25T02:54:15.348Z,15.03
2023-04-25T02:56:22.421Z,11.97
2023-04-25T02:58:29.364Z,22.83
2023-04-25T03:00:32.614Z,21.97
2023-04-25T03:02:36.676Z,13.50
2023-04-25T03:04:39.949Z,15.30
2023-04-25T03:06:43.091Z,18.67
2023-04-25T03:08:46.057Z,25.90
2023-04-25T03:10:49.627Z,20.03
2023-04-25T03:12:52.730Z,14.57
2023-04-25T03:14:58.359Z,19.90
2023-04-25T03:17:01.614Z,18.73
2023-04-25T03:19:04.704Z,17.90
2023-04-25T03:21:07.733Z,17.60
2023-04-25T03:23:10.787Z,17.87
2023-04-25T03:25:18.757Z,26.00
2023-04-25T03:27:22.692Z,15.93
2023-04-25T03:29:27.865Z,20.70
2023-04-25T03:31:33.944Z,21.57
2023-04-25T03:33:37.150Z,24.10
2023-04-25T03:35:40.199Z,16.17
2023-04-25T03:37:46.383Z,23.13
2023-04-25T03:39:53.828Z,19.43
2023-04-25T03:41:59.048Z,18.50
2023-04-25T03:44:01.941Z,23.83
2023-04-25T03:46:05.124Z,19.83
2023-04-25T03:48:09.795Z,18.77
2023-04-25T03:50:15.434Z,12.23
2023-04-25T03:52:18.438Z,18.97
2023-04-25T03:54:21.861Z,21.83
2023-04-25T03:56:35.712Z,15.27
2023-04-25T03:58:48.695Z,14.63
2023-04-25T04:00:53.707Z,15.37
2023-04-25T04:02:56.845Z,28.40
2023-04-25T04:05:01.530Z,18.77
2023-04-25T04:07:06.015Z,12.97
2023-04-25T04:09:13.470Z,14.93
2023-04-25T04:11:18.875Z,17.80
2023-04-25T04:13:22.056Z,14.37
2023-04-25T04:15:24.974Z,13.50
2023-04-25T04:17:28.015Z,17.13
2023-04-25T04:19:31.076Z,18.07
2023-04-25T04:22:01.977Z,22.90
2023-04-25T04:24:06.625Z,18.03
2023-04-25T04:26:24.448Z,20.83
2023-04-25T04:28:41.777Z,19.63
2023-04-25T04:31:08.726Z,15.50
2023-04-25T04:33:13.337Z,9.60
2023-04-25T04:35:17.355Z,10.50
2023-04-25T04:37:22.128Z,9.53
2023-04-25T04:39:25.670Z,10.63
2023-04-25T04:41:41.887Z,13.47
2023-04-25T04:43:48.744Z,17.10
2023-04-25T04:46:11.483Z,7.80
2023-04-25T04:48:35.436Z,12.67
2023-04-25T04:50:53.765Z,12.30
2023-04-25T04:53:22.041Z,12.33
2023-04-25T04:55:44.012Z,8.63
2023-04-25T04:58:06.245Z,9.33
2023-04-25T05:00:30.567Z,5.83
2023-04-25T05:02:49.286Z,9.57
2023-04-25T05:05:27.525Z,9.60
2023-04-25T05:07:48.091Z,13.80
2023-04-25T05:10:13.286Z,8.57
2023-04-25T05:12:34.656Z,18.67
2023-04-25T05:15:01.544Z,6.90
2023-04-25T05:17:25.127Z,12.53
2023-04-25T05:19:46.455Z,13.13
2023-04-25T05:22:11.443Z,14.73
2023-04-25T05:24:26.978Z,14.40
2023-04-25T05:26:50.540Z,7.17
2023-04-25T05:29:11.725Z,9.20
2023-04-25T05:31:23.517Z,19.30
2023-04-25T05:33:38.664Z,13.93
2023-04-25T05:35:41.778Z,12.87
2023-04-25T05:37:45.000Z,15.73
2023-04-25T05:39:50.317Z,16.00
2023-04-25T05:42:23.307Z,8.73
2023-04-25T05:44:26.349Z,8.60
2023-04-25T05:46:51.438Z,13.20
2023-04-25T05:49:08.113Z,15.53
2023-04-25T05:51:33.720Z,13.20
2023-04-25T05:53:50.384Z,13.80
2023-04-25T05:55:54.187Z,13.43
2023-04-25T05:58:03.870Z,17.40
2023-04-25T06:00:10.263Z,13.47
2023-04-25T06:02:21.580Z,11.20
2023-04-25T06:04:26.049Z,19.37
2023-04-25T06:06:31.180Z,11.67
2023-04-25T06:08:35.724Z,15.40
2023-04-25T06:10:40.485Z,14.07
2023-04-25T06:12:43.400Z,20.83
2023-04-25T06:14:48.652Z,14.47
2023-04-25T06:16:51.662Z,20.23
2023-04-25T06:18:54.729Z,11.77
2023-04-25T06:20:57.620Z,15.20
2023-04-25T06:23:01.118Z,20.83
2023-04-25T06:25:17.074Z,18.50
2023-04-25T06:27:20.228Z,27.37
2023-04-25T06:29:23.584Z,18.87
2023-04-25T06:31:27.961Z,16.83
2023-04-25T06:33:31.983Z,12.30
2023-04-25T06:35:34.973Z,17.17
2023-04-25T06:37:37.920Z,12.80
2023-04-25T06:39:41.483Z,18.00
2023-04-25T06:41:44.464Z,11.27
2023-04-25T06:44:07.586Z,18.07
2023-04-25T06:46:20.665Z,22.77
2023-04-25T06:48:27.135Z,21.80
2023-04-25T06:50:30.324Z,20.17
2023-04-25T06:52:33.952Z,22.93
2023-04-25T06:54:36.904Z,12.00
2023-04-25T06:56:52.140Z,22.17
2023-04-25T06:58:55.087Z,23.07
2023-04-25T07:01:06.546Z,19.17
2023-04-25T07:03:09.926Z,15.23
2023-04-25T07:05:14.361Z,15.23
2023-04-25T07:07:18.093Z,11.90
2023-04-25T07:09:26.707Z,22.43
2023-04-25T07:11:29.649Z,11.73
2023-04-25T07:13:33.094Z,11.10
2023-04-25T07:15:36.137Z,15.50
2023-04-25T07:17:39.306Z,18.80
2023-04-25T07:19:42.255Z,12.65
2023-04-25T07:21:47.255Z,19.08
2023-04-25T07:23:50.231Z,14.18
2023-04-25T07:25:57.467Z,17.45
2023-04-25T07:28:02.446Z,15.93
2023-04-25T07:30:06.348Z,28.40
2023-04-25T07:32:09.492Z,20.98
2023-04-25T07:34:12.456Z,16.13
2023-04-25T07:36:16.219Z,14.25
2023-04-25T07:38:22.108Z,17.65
2023-04-25T07:40:25.267Z,14.13
2023-04-25T07:42:33.360Z,17.75
2023-04-25T07:44:39.400Z,17.70
2023-04-25T07:46:43.670Z,15.50
2023-04-25T07:48:46.531Z,16.30
2023-04-25T07:50:49.448Z,18.13
2023-04-25T07:52:52.622Z,24.20
2023-04-25T07:55:06.609Z,19.27
2023-04-25T07:57:19.542Z,17.00
2023-04-25T07:59:23.953Z,18.73
2023-04-25T08:01:27.911Z,19.30
2023-04-25T08:03:34.880Z,15.80
2023-04-25T08:05:40.758Z,17.83
2023-04-25T08:07:44.540Z,20.47
2023-04-25T08:09:47.830Z,14.77
2023-04-25T08:12:01.521Z,20.17
2023-04-25T08:14:07.816Z,24.30
2023-04-25T08:16:11.690Z,17.53
2023-04-25T08:18:16.941Z,18.07
2023-04-25T08:20:21.410Z,20.70
2023-04-25T08:22:26.010Z,21.40
2023-04-25T08:24:39.749Z,20.73
2023-04-25T08:26:44.754Z,17.63
2023-04-25T08:28:53.437Z,21.13
2023-04-25T08:30:56.625Z,12.80
2023-04-25T08:33:00.090Z,15.27
2023-04-25T08:35:24.009Z,14.73
2023-04-25T08:37:27.800Z,15.87
2023-04-25T08:39:35.669Z,11.93
2023-04-25T08:41:58.566Z,11.37
2023-04-25T08:44:03.502Z,19.37
2023-04-25T08:46:07.414Z,12.53
2023-04-25T08:48:18.699Z,17.20
2023-04-25T08:50:23.304Z,10.67
2023-04-25T08:52:30.765Z,12.27
2023-04-25T08:54:35.377Z,14.07
2023-04-25T08:56:40.287Z,15.53
2023-04-25T08:58:43.180Z,7.50
2023-04-25T09:00:48.181Z,13.47
2023-04-25T09:02:52.047Z,10.73
2023-04-25T09:04:57.057Z,14.83
2023-04-25T09:07:00.531Z,20.50
2023-04-25T09:09:06.263Z,8.65
2023-04-25T09:11:09.397Z,15.23
2023-04-25T09:13:15.902Z,9.95
2023-04-25T09:15:51.075Z,15.30
2023-04-25T09:18:12.843Z,10.70
2023-04-25T09:20:20.785Z,11.30
2023-04-25T09:25:58.223Z,10.70
2023-04-25T09:28:05.920Z,11.40
2023-04-25T09:30:10.056Z,10.55
2023-04-25T09:32:34.389Z,7.20
2023-04-25T09:34:41.908Z,7.17
2023-04-25T09:36:47.515Z,12.60
2023-04-25T09:39:30.904Z,20.87
2023-04-25T09:41:44.661Z,10.27
2023-04-25T09:43:47.936Z,9.43
2023-04-25T09:45:52.885Z,13.40
2023-04-25T09:47:59.845Z,13.50
2023-04-25T09:50:16.211Z,8.80
2023-04-25T09:52:25.189Z,13.53
2023-04-25T09:54:46.389Z,5.67
2023-04-25T09:56:53.762Z,13.90
2023-04-25T09:58:58.986Z,12.50
2023-04-25T10:01:03.407Z,10.93
2023-04-25T10:03:17.773Z,12.27
2023-04-25T10:05:53.398Z,14.20
2023-04-25T10:07:56.999Z,13.70
2023-04-25T10:10:03.956Z,7.47
2023-04-25T10:12:07.372Z,15.00
2023-04-25T10:14:10.774Z,6.73
2023-04-25T10:16:14.035Z,13.00
2023-04-25T10:18:20.970Z,14.00
2023-04-25T10:20:24.462Z,11.33
2023-04-25T10:22:32.610Z,12.90
2023-04-25T10:24:36.563Z,11.60
2023-04-25T10:26:39.432Z,10.47
2023-04-25T10:28:57.776Z,7.53
2023-04-25T10:31:01.967Z,6.23
2023-04-25T10:33:20.747Z,9.23
2023-04-25T10:35:27.204Z,9.73
2023-04-25T10:37:30.077Z,9.57
2023-04-25T10:39:34.896Z,8.13
2023-04-25T10:41:50.841Z,13.38
2023-04-25T10:44:02.100Z,8.98
2023-04-25T10:46:15.370Z,7.93
2023-04-25T10:48:28.413Z,6.70
2023-04-25T10:50:39.567Z,5.90
2023-04-25T10:52:42.456Z,8.52
2023-04-25T10:54:48.893Z,8.93
2023-04-25T10:56:54.147Z,13.90
2023-04-25T10:59:07.908Z,9.27
2023-04-25T11:01:10.910Z,6.82
2023-04-25T11:03:18.998Z,5.72
2023-04-25T11:05:26.031Z,8.25
2023-04-25T11:07:36.695Z,12.25
2023-04-25T11:09:41.592Z,5.00
2023-04-25T11:11:44.457Z,13.57
2023-04-25T11:13:50.278Z,9.77
2023-04-25T11:16:03.162Z,7.13
2023-04-25T11:18:19.288Z,10.60
2023-04-25T11:20:24.181Z,6.70
2023-04-25T11:22:28.825Z,12.93
2023-04-25T11:24:32.910Z,5.00
2023-04-25T11:26:36.216Z,7.60
2023-04-25T11:28:39.047Z,5.23
2023-04-25T11:30:42.097Z,12.47
2023-04-25T11:32:45.344Z,9.77
2023-04-25T11:34:49.051Z,6.90
2023-04-25T11:36:54.195Z,10.43
2023-04-25T11:38:57.168Z,10.07
2023-04-25T11:41:00.618Z,12.23
2023-04-25T11:43:05.319Z,12.43
2023-04-25T11:45:08.929Z,4.17
2023-04-25T11:47:11.813Z,11.83
2023-04-25T11:49:14.866Z,7.20
2023-04-25T11:51:17.776Z,2.67
2023-04-25T11:53:22.123Z,4.83
2023-04-25T11:55:25.025Z,6.50
2023-04-25T11:57:27.896Z,6.73
2023-04-25T11:59:31.039Z,8.53
2023-04-25T12:01:35.747Z,11.10
2023-04-25T12:03:48.087Z,4.40
2023-04-25T12:05:52.740Z,7.73
2023-04-25T12:07:55.926Z,6.60
2023-04-25T12:10:00.364Z,7.10
2023-04-25T12:12:04.816Z,2.40
2023-04-25T12:14:07.801Z,9.23
2023-04-25T12:16:10.849Z,6.17
2023-04-25T12:18:13.832Z,14.53
2023-04-25T12:20:17.890Z,5.50
2023-04-25T12:22:22.835Z,4.55
2023-04-25T12:24:27.221Z,5.25
2023-04-25T12:26:48.218Z,4.05
2023-04-25T12:28:51.928Z,40.60
2023-04-25T12:30:59.988Z,10.18
2023-04-25T12:33:03.291Z,3.95
2023-04-25T12:35:07.539Z,8.73
2023-04-25T12:37:10.696Z,21.30
2023-04-25T12:39:17.309Z,8.43
2023-04-25T12:41:20.459Z,11.63
2023-04-25T12:43:25.610Z,5.80
2023-04-25T12:45:28.675Z,5.22
2023-04-25T12:47:36.282Z,3.63
2023-04-25T12:49:39.252Z,10.88
2023-04-25T12:51:42.922Z,9.05
2023-04-25T12:53:46.563Z,5.47
2023-04-25T12:55:51.328Z,2.42
2023-04-25T12:57:54.728Z,5.85
2023-04-25T12:59:59.382Z,5.85
2023-04-25T13:02:02.911Z,5.50
2023-04-25T13:04:06.385Z,5.15
2023-04-25T13:06:10.042Z,4.93
2023-04-25T13:08:13.651Z,6.40
2023-04-25T13:10:17.344Z,9.13
2023-04-25T13:12:20.943Z,2.15
2023-04-25T13:14:23.968Z,5.38
2023-04-25T13:16:29.426Z,8.18
2023-04-25T13:18:32.999Z,4.45
2023-04-25T13:20:36.665Z,2.47
2023-04-25T13:22:40.594Z,4.25
2023-04-25T13:24:43.651Z,6.63
2023-04-25T13:26:46.782Z,6.65
2023-04-25T13:28:49.724Z,3.28
2023-04-25T13:30:53.018Z,5.22
2023-04-25T13:32:58.313Z,3.70
2023-04-25T13:35:03.422Z,5.45
2023-04-25T13:37:10.586Z,9.15
2023-04-25T13:39:14.880Z,10.25
2023-04-25T13:41:20.054Z,6.90
2023-04-25T13:43:23.788Z,5.90
2023-04-25T13:45:27.139Z,6.53
2023-04-25T13:47:32.178Z,4.70
2023-04-25T13:49:36.754Z,7.25
2023-04-25T13:51:39.800Z,9.50
2023-04-25T13:53:43.157Z,6.28
2023-04-25T13:55:45.986Z,4.80
2023-04-25T13:57:49.040Z,4.32
2023-04-25T13:59:52.695Z,6.55
2023-04-25T14:01:56.164Z,5.13
2023-04-25T14:03:59.814Z,3.33
2023-04-25T14:06:05.549Z,6.15
2023-04-25T14:08:09.055Z,2.80
2023-04-25T14:10:12.554Z,3.28
2023-04-25T14:12:15.874Z,8.38
2023-04-25T14:14:18.788Z,7.90
2023-04-25T14:16:22.167Z,3.58
2023-04-25T14:18:25.093Z,2.58
2023-04-25T14:20:28.158Z,3.45
2023-04-25T14:22:32.544Z,2.85
2023-04-25T14:24:35.761Z,5.65
2023-04-25T14:26:39.438Z,3.58
2023-04-25T14:28:42.333Z,7.43
2023-04-25T14:30:45.266Z,4.97
2023-04-25T14:32:48.259Z,5.75
2023-04-25T14:34:51.209Z,5.13
2023-04-25T14:36:54.493Z,6.82
2023-04-25T14:38:59.024Z,7.82
2023-04-25T14:41:02.011Z,3.50
2023-04-25T14:43:05.058Z,8.10
2023-04-25T14:45:09.755Z,5.15
2023-04-25T14:47:12.934Z,5.05
2023-04-25T14:49:15.937Z,2.90
2023-04-25T14:51:19.148Z,8.68
2023-04-25T14:53:22.071Z,5.63
2023-04-25T14:55:26.379Z,2.83
2023-04-25T14:57:29.405Z,3.30
2023-04-25T14:59:32.632Z,3.78
2023-04-25T15:01:35.786Z,4.47
2023-04-25T15:03:38.913Z,6.20
2023-04-25T15:05:42.589Z,2.70
2023-04-25T15:07:48.679Z,3.15
2023-04-25T15:09:51.694Z,6.93
2023-04-25T15:11:55.997Z,3.17
2023-04-25T15:13:58.928Z,3.85
2023-04-25T15:16:02.031Z,4.47
2023-04-25T15:18:05.348Z,8.57
2023-04-25T15:20:10.784Z,5.10
2023-04-25T15:22:13.669Z,3.10
2023-04-25T15:24:17.415Z,7.68
2023-04-25T15:26:20.424Z,4.77
2023-04-25T15:28:25.642Z,8.07
2023-04-25T15:30:28.569Z,5.27
2023-04-25T15:32:31.522Z,1.67
2023-04-25T15:34:35.338Z,3.90
2023-04-25T15:36:39.291Z,6.50
2023-04-25T15:38:42.398Z,7.20
2023-04-25T15:40:46.039Z,2.73
2023-04-25T15:42:51.628Z,6.30
2023-04-25T15:44:55.911Z,3.23
2023-04-25T15:46:58.754Z,9.37
2023-04-25T15:49:02.102Z,5.53
2023-04-25T15:51:06.033Z,3.40
2023-04-25T15:53:08.937Z,6.00
2023-04-25T15:55:12.989Z,4.83
2023-04-25T15:57:16.049Z,6.33
2023-04-25T15:59:18.969Z,2.40
2023-04-25T16:01:26.102Z,5.40
2023-04-25T16:03:29.297Z,4.10
2023-04-25T16:05:34.519Z,4.70
2023-04-25T16:07:37.748Z,5.03
2023-04-25T16:09:41.078Z,7.40
2023-04-25T16:11:44.209Z,5.87
2023-04-25T16:13:48.309Z,4.67
2023-04-25T16:15:51.583Z,3.93
2023-04-25T16:17:56.296Z,6.63
2023-04-25T16:20:00.226Z,3.10
2023-04-25T16:22:03.182Z,6.93
2023-04-25T16:24:07.505Z,9.57
2023-04-25T16:26:10.440Z,5.17
2023-04-25T16:28:13.374Z,3.30
2023-04-25T16:30:16.820Z,7.67
2023-04-25T16:32:19.812Z,3.80
2023-04-25T16:34:27.354Z,5.93
2023-04-25T16:36:32.367Z,8.03
2023-04-25T16:38:39.152Z,6.30
2023-04-25T16:40:42.056Z,7.70
2023-04-25T16:42:45.000Z,5.53
2023-04-25T16:44:47.880Z,6.57
2023-04-25T16:46:50.972Z,3.33
2023-04-25T16:48:54.149Z,6.20
2023-04-25T16:50:58.757Z,3.97
2023-04-25T16:53:01.765Z,5.63
2023-04-25T16:55:06.464Z,5.60
2023-04-25T16:57:11.092Z,3.73
2023-04-25T16:59:13.954Z,3.83
2023-04-25T17:01:17.276Z,5.20
2023-04-25T17:03:22.346Z,3.30
2023-04-25T17:05:26.151Z,9.00
2023-04-25T17:07:31.281Z,5.10
2023-04-25T17:09:34.446Z,3.63
2023-04-25T17:11:38.033Z,5.33
2023-04-25T17:13:43.454Z,8.83
2023-04-25T17:15:46.549Z,5.33
2023-04-25T17:17:50.166Z,4.50
2023-04-25T17:19:53.140Z,7.13
2023-04-25T17:21:56.394Z,3.37
2023-04-25T17:24:00.873Z,8.30
2023-04-25T17:26:03.812Z,4.70
2023-04-25T17:28:07.010Z,6.90
2023-04-25T17:30:11.174Z,4.80
2023-04-25T17:32:15.650Z,5.00
2023-04-25T17:34:20.847Z,6.83
2023-04-25T17:36:23.829Z,6.30
2023-04-25T17:38:27.710Z,3.40
2023-04-25T17:40:32.832Z,6.77
2023-04-25T17:42:36.456Z,4.43
2023-04-25T17:44:42.369Z,10.40
2023-04-25T17:46:46.315Z,5.67
2023-04-25T17:48:50.204Z,3.63
2023-04-25T17:50:53.463Z,3.80
2023-04-25T17:52:56.363Z,3.83
2023-04-25T17:54:59.632Z,3.70
2023-04-25T17:57:04.834Z,5.30
2023-04-25T17:59:08.096Z,4.57
2023-04-25T18:01:11.084Z,1.20
2023-04-25T18:03:14.591Z,3.90
2023-04-25T18:05:20.104Z,8.17
2023-04-25T18:07:23.684Z,6.40
2023-04-25T18:09:26.911Z,10.53
2023-04-25T18:11:30.182Z,6.07
2023-04-25T18:13:34.699Z,8.73
2023-04-25T18:15:37.835Z,9.43
2023-04-25T18:17:41.404Z,3.87
2023-04-25T18:19:44.670Z,4.10
2023-04-25T18:21:47.991Z,4.60
2023-04-25T18:23:51.030Z,5.30
2023-04-25T18:25:54.192Z,4.80
2023-04-25T18:27:58.552Z,9.60
2023-04-25T18:30:03.946Z,3.50
2023-04-25T18:32:07.493Z,5.63
2023-04-25T18:34:10.760Z,6.23
2023-04-25T18:36:13.666Z,6.80
2023-04-25T18:38:24.630Z,4.27
2023-04-25T18:40:44.199Z,7.10
2023-04-25T18:42:57.280Z,6.00
2023-04-25T18:45:00.315Z,5.50
2023-04-25T18:47:04.675Z,5.30
2023-04-25T18:49:07.766Z,6.63
2023-04-25T18:51:11.227Z,6.83
2023-04-25T18:53:14.958Z,3.37
2023-04-25T18:55:17.980Z,5.30
2023-04-25T18:57:21.692Z,9.80
2023-04-25T18:59:24.948Z,5.80
2023-04-25T19:01:28.148Z,5.90
2023-04-25T19:03:33.293Z,5.67
2023-04-25T19:05:36.425Z,15.00
2023-04-25T19:07:40.505Z,5.30
2023-04-25T19:09:43.484Z,4.17
2023-04-25T19:11:46.744Z,7.10
2023-04-25T19:13:49.798Z,7.97
2023-04-25T19:15:52.675Z,7.60
2023-04-25T19:17:55.918Z,3.03
2023-04-25T19:20:00.217Z,4.63
2023-04-25T19:22:03.156Z,4.37
2023-04-25T19:24:07.072Z,6.20
2023-04-25T19:26:10.762Z,5.37
2023-04-25T19:28:13.945Z,4.53
2023-04-25T19:30:16.913Z,8.10
2023-04-25T19:32:19.806Z,7.57
2023-04-25T19:34:23.374Z,5.57
2023-04-25T19:36:28.449Z,5.23
2023-04-25T19:38:31.453Z,10.33
2023-04-25T19:40:34.431Z,7.47
2023-04-25T19:42:37.908Z,7.60
2023-04-25T19:44:41.135Z,8.80
2023-04-25T19:46:46.545Z,6.30
2023-04-25T19:48:49.684Z,12.80
2023-04-25T19:50:52.637Z,8.50
2023-04-25T19:52:57.570Z,6.03
2023-04-25T19:55:02.531Z,10.97
2023-04-25T19:57:05.630Z,18.43
2023-04-25T19:59:08.942Z,6.70
2023-04-25T20:01:12.310Z,5.13
2023-04-25T20:03:16.869Z,3.27
2023-04-25T20:05:19.932Z,12.57
2023-04-25T20:07:23.594Z,11.93
2023-04-25T20:09:27.917Z,4.67
2023-04-25T20:11:31.185Z,4.17
2023-04-25T20:13:34.124Z,4.23
2023-04-25T20:15:37.053Z,7.03
2023-04-25T20:17:41.508Z,9.43
2023-04-25T20:19:46.439Z,11.43
2023-04-25T20:21:49.375Z,7.07
2023-04-25T20:23:52.427Z,6.73
2023-04-25T20:25:56.996Z,7.70
2023-04-25T20:28:00.055Z,6.17
2023-04-25T20:30:07.096Z,10.20
2023-04-25T20:32:10.624Z,5.80
2023-04-25T20:34:13.561Z,6.13
2023-04-25T20:36:16.626Z,9.53
2023-04-25T20:38:19.490Z,2.93
2023-04-25T20:40:22.890Z,6.03
2023-04-25T20:42:27.339Z,8.73
2023-04-25T20:44:30.416Z,5.93
2023-04-25T20:46:33.499Z,6.67
2023-04-25T20:48:36.731Z,6.60
2023-04-25T20:50:39.630Z,3.20
2023-04-25T20:52:43.190Z,5.80
2023-04-25T20:54:50.196Z,5.10
2023-04-25T20:56:53.104Z,6.33
2023-04-25T20:58:58.341Z,7.30
2023-04-25T21:01:01.403Z,10.30
2023-04-25T21:03:05.074Z,5.50
2023-04-25T21:05:10.694Z,6.90
2023-04-25T21:07:13.893Z,10.30
2023-04-25T21:09:18.302Z,10.20
2023-04-25T21:11:21.337Z,2.73
2023-04-25T21:13:26.743Z,6.50
2023-04-25T21:15:31.186Z,3.50
2023-04-25T21:17:34.095Z,9.27
2023-04-25T21:19:37.010Z,4.60
2023-04-25T21:21:40.293Z,3.90
2023-04-25T21:23:43.304Z,9.27
2023-04-25T21:25:48.767Z,2.60
2023-04-25T21:27:52.618Z,13.63
2023-04-25T21:29:55.550Z,7.00
2023-04-25T21:31:59.769Z,6.73
2023-04-25T21:34:02.727Z,10.50
2023-04-25T21:36:06.128Z,12.90
2023-04-25T21:38:09.093Z,7.00
2023-04-25T21:40:13.568Z,9.40
2023-04-25T21:42:16.781Z,11.03
2023-04-25T21:44:19.770Z,4.63
2023-04-25T21:46:24.493Z,7.47
2023-04-25T21:48:28.872Z,4.80
2023-04-25T21:50:31.825Z,14.70
2023-04-25T21:52:35.013Z,6.83
2023-04-25T21:54:37.904Z,7.77
2023-04-25T21:56:40.796Z,6.70
2023-04-25T21:58:44.040Z,12.63
2023-04-25T22:00:47.021Z,4.93
2023-04-25T22:02:50.192Z,9.37
2023-04-25T22:04:54.584Z,6.30
2023-04-25T22:06:57.499Z,6.37
2023-04-25T22:09:00.499Z,6.10
2023-04-25T22:11:06.921Z,8.90
2023-04-25T22:13:10.090Z,6.53
2023-04-25T22:15:13.696Z,10.77
2023-04-25T22:17:17.820Z,4.40
2023-04-25T22:19:20.924Z,5.70
2023-04-25T22:21:25.405Z,10.90
2023-04-25T22:23:28.949Z,6.10
2023-04-25T22:25:32.013Z,8.33
2023-04-25T22:27:35.017Z,7.80
2023-04-25T22:29:37.880Z,9.30
2023-04-25T22:31:40.975Z,13.43
2023-04-25T22:33:46.928Z,6.90
2023-04-25T22:35:49.793Z,11.10
2023-04-25T22:37:54.394Z,7.17
2023-04-25T22:39:57.872Z,9.83
2023-04-25T22:42:00.840Z,8.23
2023-04-25T22:44:03.730Z,10.00
2023-04-25T22:46:07.386Z,4.77
2023-04-25T22:48:10.335Z,5.73
2023-04-25T22:50:17.057Z,10.67
2023-04-25T22:52:20.726Z,9.27
2023-04-25T22:54:25.038Z,4.70
2023-04-25T22:56:30.269Z,7.80
2023-04-25T22:58:33.166Z,5.70
2023-04-25T23:00:37.544Z,10.53
2023-04-25T23:02:40.788Z,7.73
2023-04-25T23:04:44.737Z,11.13
2023-04-25T23:06:48.125Z,5.53
2023-04-25T23:08:51.224Z,5.90
2023-04-25T23:10:55.609Z,4.97
2023-04-25T23:13:00.768Z,8.37
2023-04-25T23:15:05.148Z,11.90
2023-04-25T23:17:08.187Z,8.50
2023-04-25T23:19:11.145Z,10.97
2023-04-25T23:21:14.013Z,8.13
2023-04-25T23:23:16.965Z,10.40
2023-04-25T23:25:20.156Z,7.43
2023-04-25T23:27:24.398Z,6.53
2023-04-25T23:29:27.301Z,9.00
2023-04-25T23:31:30.796Z,10.77
2023-04-25T23:33:34.274Z,4.83
2023-04-25T23:35:37.144Z,17.90
2023-04-25T23:37:40.662Z,3.83
2023-04-25T23:39:48.717Z,10.93
2023-04-25T23:41:51.630Z,6.77
2023-04-25T23:43:55.816Z,10.93
2023-04-25T23:45:58.656Z,11.10
2023-04-25T23:48:02.873Z,4.03
2023-04-25T23:50:06.564Z,12.10
2023-04-25T23:52:09.673Z,8.50
2023-04-25T23:54:12.833Z,10.03
2023-04-25T23:56:15.687Z,9.90
2023-04-25T23:58:18.564Z,6.87
